Airfield :
LOGIN :

Register | Disclaimer

   EN    FR    IT 

 










Legend :    VFR   Marginal VFR   IFR   Intensive IFR   Very Intensive IFR
Visi :
Ceiling :
>= 8 km
>= 3000ft
5 to 8 km
1000 to 3000 ft
1500m to 5 km
500 to 1000 ft
800 to 1500m
200 to 500 ft
< 800m
< 200 ft
Symbols :   Thunderstorms  Fog  Heavy snow  Heavy precipitations  Wind > 20 kt
SIGMETs :     Misc.  Thunderstorms  Icing  Turbulence  Mountain Waves  Volcanic Ashes






- Airport Elevation : 39 ft
- IATA code : SUF


LICA - Lamezia Terme

CURRENT METAR :
  • 130950Z 23010KT 200V260 7000 RA FEW003 SCT010 BKN030 16/15 Q1005

EXPIRED METARs :
  • 130925Z 22012KT 190V260 4000 RA FEW003 SCT010 BKN030 16/15 Q1005
  • 130906Z 23011KT 190V260 1500 +RA FEW003 SCT010 BKN030 16/15 Q1005
  • 130837Z 22013KT 180V240 3000 RA FEW003 SCT010 BKN030 16/14 Q1004
  • 130750Z 23016KT 6000 -RA SCT010 BKN030 16/14 Q1003 RERA

TAF TAF LICA
Valid from the 13 at 06:00 until the 14 at 06:00 UTC


130500Z 1306/1406 26018KT 9999 SCT020
TEMPO 1306/1309 4000 SHRA
BECMG 1318/1320 26008KT
BECMG 1400/1402 07010KT



MET'MAP, your aeronautical weather chart ! - Copyright ORBIFLY December 2007 - Disclaimer

ORBIFLY MET'MAP TEAM :

Programming & Development : Alexandra Zaïnal
Concept & Development : Baudouin d'Aumeries
Co-Development & Prog : Marc-Olivier Méhu
Technical & hardware support : Manuel Goepfert

Contact : metmap@orbifly.com




SOURCES & CREDITS :

   NOAA